Time;durP1;ratioP1;P1;durP2;ratioP2;P2;SDS_P1;SDS_P2;PMS_P1;PMS_P2;Temp;Humidity;BMP_temperature;BMP_pressure;BME280_temperature;BME280_humidity;BME280_pressure;Samples;Min_cycle;Max_cycle;Signal;HPM_P1;HPM_P2
2022/05/02 00:01:03;;;;;;;5.95;2.50;;;;;;;24.75;30.73;101069.25;5034392;28;20021;-47
2022/05/02 00:03:30;;;;;;;7.65;2.80;;;;;;;24.52;30.97;101075.59;5034586;28;20163;-50
2022/05/02 00:05:56;;;;;;;6.75;2.25;;;;;;;23.69;30.23;101074.06;5034651;28;20091;-48
2022/05/02 00:08:23;;;;;;;6.53;2.55;;;;;;;23.19;31.73;101078.81;5034769;28;20033;-47
2022/05/02 00:10:49;;;;;;;6.50;2.50;;;;;;;23.53;32.65;101070.59;5035161;28;20029;-48
2022/05/02 00:13:15;;;;;;;7.85;2.63;;;;;;;23.33;33.51;101071.63;5034648;28;20025;-48
2022/05/02 00:15:41;;;;;;;9.05;3.08;;;;;;;23.44;35.06;101073.16;5034649;28;20052;-48
2022/05/02 00:18:08;;;;;;;11.13;3.20;;;;;;;23.43;35.18;101079.72;5034564;28;20036;-50
2022/05/02 00:20:38;;;;;;;13.98;3.58;;;;;;;23.15;34.50;101078.59;5035393;28;20025;-50
2022/05/02 00:23:07;;;;;;;5.47;2.33;;;;;;;22.75;34.67;101076.88;5034778;28;20420;-51
2022/05/02 00:25:33;;;;;;;8.98;2.33;;;;;;;22.65;35.68;101074.22;5034655;28;20052;-51
2022/05/02 00:28:00;;;;;;;8.65;2.70;;;;;;;22.58;34.72;101074.53;5034529;28;20037;-51
2022/05/02 00:30:28;;;;;;;7.05;2.10;;;;;;;22.80;35.57;101076.84;5034013;28;20076;-51
2022/05/02 00:32:55;;;;;;;9.25;2.75;;;;;;;22.00;34.31;101078.81;5034834;28;20033;-48
2022/05/02 00:35:21;;;;;;;5.50;2.53;;;;;;;22.30;34.21;101077.91;5034252;28;20045;-51
2022/05/02 00:37:48;;;;;;;6.90;2.22;;;;;;;22.01;34.19;101080.44;5034390;28;20076;-50
2022/05/02 00:40:16;;;;;;;4.65;2.00;;;;;;;22.19;35.08;101079.06;5034354;28;20021;-51
2022/05/02 00:42:44;;;;;;;7.05;1.83;;;;;;;21.60;33.95;101080.53;5034144;28;20053;-49
2022/05/02 00:45:12;;;;;;;5.85;1.85;;;;;;;21.52;33.84;101081.06;5034199;28;20021;-50
2022/05/02 00:47:39;;;;;;;8.57;2.17;;;;;;;21.96;35.66;101075.81;5034255;28;20072;-51
2022/05/02 00:50:07;;;;;;;5.90;1.92;;;;;;;22.09;34.41;101068.97;5034587;28;20061;-51
2022/05/02 00:52:34;;;;;;;7.82;2.10;;;;;;;21.86;34.30;101073.91;5034718;28;20446;-51
2022/05/02 00:55:03;;;;;;;9.40;2.08;;;;;;;22.07;33.83;101079.34;5033050;28;20416;-51
2022/05/02 00:57:31;;;;;;;9.05;2.13;;;;;;;22.03;35.55;101086.41;5033846;28;20022;-51
2022/05/02 00:59:58;;;;;;;7.22;2.85;;;;;;;21.58;34.74;101079.97;5033863;28;20117;-51
2022/05/02 01:02:24;;;;;;;6.20;2.53;;;;;;;21.74;34.80;101083.50;5034194;28;20029;-50
2022/05/02 01:04:50;;;;;;;8.77;3.05;;;;;;;21.78;34.74;101079.94;5033863;28;20090;-50
2022/05/02 01:07:19;;;;;;;5.93;2.10;;;;;;;21.76;34.51;101073.94;5033725;28;20029;-51
2022/05/02 01:09:48;;;;;;;5.82;2.20;;;;;;;21.54;34.84;101076.13;5033854;28;20647;-50
2022/05/02 01:12:26;;;;;;;9.45;2.85;;;;;;;21.34;35.60;101083.25;5033695;28;20048;-49
2022/05/02 01:14:55;;;;;;;10.23;2.80;;;;;;;21.63;36.15;101076.41;5033621;28;20033;-50
2022/05/02 01:17:22;;;;;;;11.07;2.40;;;;;;;21.57;36.12;101075.59;5034368;28;20027;-51
2022/05/02 01:19:50;;;;;;;8.95;2.40;;;;;;;21.77;35.98;101082.94;5033874;28;20033;-50
2022/05/02 01:22:17;;;;;;;7.03;2.28;;;;;;;21.94;35.01;101071.75;5033505;28;20436;-50
2022/05/02 01:24:48;;;;;;;7.93;2.65;;;;;;;21.91;35.81;101077.72;5033468;28;20044;-49
2022/05/02 01:27:16;;;;;;;8.20;2.60;;;;;;;21.98;35.72;101068.16;5032947;28;20029;-50
2022/05/02 01:29:45;;;;;;;13.57;2.92;;;;;;;21.87;36.29;101072.00;5033043;28;20076;-50
2022/05/02 01:32:12;;;;;;;6.85;2.65;;;;;;;22.00;36.73;101065.19;5033105;28;20055;-51
2022/05/02 01:34:42;;;;;;;7.90;2.35;;;;;;;22.06;36.16;101055.91;5032817;28;20500;-50
2022/05/02 01:37:09;;;;;;;9.68;2.83;;;;;;;;;;5032936;28;20045;-50
2022/05/02 01:39:38;;;;;;;6.85;2.22;;;;;;;22.09;36.30;101058.88;5033097;28;20135;-51
2022/05/02 01:42:07;;;;;;;6.82;2.80;;;;;;;22.09;37.10;101068.97;5033112;28;20466;-51
2022/05/02 01:44:34;;;;;;;8.95;3.20;;;;;;;22.17;36.70;101076.63;5033124;28;20433;-49
2022/05/02 01:47:01;;;;;;;8.85;2.90;;;;;;;21.81;36.84;101068.47;5032710;28;20083;-51
2022/05/02 01:49:27;;;;;;;7.65;2.65;;;;;;;22.12;37.25;101071.97;5032988;28;20104;-50
2022/05/02 01:51:54;;;;;;;9.32;2.40;;;;;;;22.22;36.84;101070.34;5032894;28;20505;-49
2022/05/02 01:54:21;;;;;;;11.68;3.10;;;;;;;22.23;37.07;101083.69;5033375;28;20056;-50
2022/05/02 01:56:47;;;;;;;11.60;3.47;;;;;;;22.33;37.27;101083.66;5032736;28;20030;-50
2022/05/02 01:59:13;;;;;;;9.07;2.47;;;;;;;22.02;37.97;101082.06;5032803;28;20102;-50
2022/05/02 02:01:40;;;;;;;8.30;2.97;;;;;;;22.19;38.07;101077.13;5033363;28;20123;-51
2022/05/02 02:06:52;;;;;;;12.25;2.88;;;;;;;22.13;36.96;101070.88;5032867;28;20032;-51
2022/05/02 02:09:18;;;;;;;8.82;2.47;;;;;;;22.22;36.12;101083.97;5032379;28;20026;-51
2022/05/02 02:11:45;;;;;;;8.00;2.28;;;;;;;22.33;37.11;101080.91;5032532;28;20028;-50
2022/05/02 02:14:11;;;;;;;8.10;3.03;;;;;;;22.37;37.00;101076.50;5032697;28;20022;-50
2022/05/02 02:16:37;;;;;;;12.93;2.88;;;;;;;22.57;37.53;101072.09;5032588;28;20056;-48
2022/05/02 02:19:04;;;;;;;13.25;3.15;;;;;;;22.25;37.54;101081.47;5032697;28;20500;-50
2022/05/02 02:21:32;;;;;;;8.27;2.80;;;;;;;22.51;37.71;101086.84;5032487;28;20397;-51
2022/05/02 02:23:59;;;;;;;8.07;2.85;;;;;;;22.50;37.20;101082.50;5032358;28;20434;-50
2022/05/02 02:26:26;;;;;;;3.80;1.30;;;;;;;22.40;27.83;101084.16;5032691;28;20087;-50
2022/05/02 02:28:52;;;;;;;5.38;1.10;;;;;;;22.24;26.59;101085.31;5032505;28;20029;-51
2022/05/02 02:31:19;;;;;;;5.93;1.30;;;;;;;21.90;27.19;101085.09;5032764;28;20124;-50
2022/05/02 02:33:45;;;;;;;3.50;1.25;;;;;;;21.53;27.38;101104.47;5032311;28;20068;-49
2022/05/02 02:36:11;;;;;;;4.20;1.13;;;;;;;21.37;27.23;101105.56;5032386;28;20462;-51
2022/05/02 02:38:38;;;;;;;4.28;1.13;;;;;;;21.38;27.08;101104.47;5032609;28;20030;-50
2022/05/02 02:41:04;;;;;;;3.15;1.25;;;;;;;20.87;28.06;101110.59;5032381;28;20013;-50
2022/05/02 02:43:30;;;;;;;4.50;1.30;;;;;;;20.44;28.59;101111.81;5032574;28;20025;-51
2022/05/02 02:45:56;;;;;;;3.50;1.50;;;;;;;20.13;28.55;101103.47;5032580;28;20454;-49
2022/05/02 02:48:22;;;;;;;3.80;1.25;;;;;;;19.88;29.40;101104.16;5032377;28;20100;-50
2022/05/02 02:50:49;;;;;;;6.60;1.20;;;;;;;19.73;30.29;101104.03;5032581;28;20029;-51
2022/05/02 02:53:15;;;;;;;2.90;1.40;;;;;;;19.59;29.89;101111.78;5032112;28;20033;-50
2022/05/02 02:55:41;;;;;;;2.38;1.40;;;;;;;19.61;29.46;101114.28;5032020;28;20064;-51
2022/05/02 02:58:07;;;;;;;4.22;1.00;;;;;;;19.40;30.43;101111.34;5032124;28;20030;-49
2022/05/02 03:00:33;;;;;;;4.65;1.15;;;;;;;19.19;31.77;101104.91;5032637;28;20030;-51
2022/05/02 03:03:00;;;;;;;2.22;1.05;;;;;;;19.02;31.50;101117.75;5032810;28;20036;-50
2022/05/02 03:08:11;;;;;;;4.07;1.30;;;;;;;19.08;31.59;101124.88;5033062;28;20036;-51
2022/05/02 03:10:37;;;;;;;5.50;1.48;;;;;;;18.82;32.40;101126.50;5032688;28;20030;-51
2022/05/02 03:13:04;;;;;;;3.05;1.08;;;;;;;18.83;32.63;101130.84;5030868;28;20394;-50
2022/05/02 03:15:33;;;;;;;3.10;1.10;;;;;;;18.91;32.44;101133.09;5032210;28;20025;-48
2022/05/02 03:17:59;;;;;;;4.93;1.60;;;;;;;18.84;32.55;101134.38;5034326;28;20029;-50
2022/05/02 03:20:25;;;;;;;4.20;1.17;;;;;;;18.68;32.84;101147.75;5035806;28;20022;-49
2022/05/02 03:22:51;;;;;;;4.50;1.33;;;;;;;18.45;33.20;101142.53;5035818;28;20103;-50
2022/05/02 03:25:18;;;;;;;4.00;1.30;;;;;;;18.59;33.75;101138.38;5035692;28;20033;-50
2022/05/02 03:27:44;;;;;;;5.93;1.35;;;;;;;18.43;34.56;101142.81;5035719;28;20500;-50
2022/05/02 03:30:11;;;;;;;4.63;1.30;;;;;;;18.23;35.42;101142.50;5035417;28;20496;-49
2022/05/02 03:32:37;;;;;;;4.95;1.50;;;;;;;18.08;36.20;101153.13;5035551;28;20170;-51
2022/05/02 03:35:04;;;;;;;3.15;1.42;;;;;;;17.96;37.01;101164.06;5035479;28;20028;-51
2022/05/02 03:37:30;;;;;;;5.00;1.80;;;;;;;18.02;37.26;101157.63;5035691;28;20034;-50
2022/05/02 03:39:57;;;;;;;4.63;1.48;;;;;;;17.89;37.50;101155.28;5035859;28;20104;-51
2022/05/02 03:42:23;;;;;;;4.50;1.48;;;;;;;17.80;37.99;101156.75;5035423;28;20470;-49
2022/05/02 03:44:49;;;;;;;4.00;1.50;;;;;;;17.66;38.51;101161.66;5035503;28;20080;-51
2022/05/02 03:47:15;;;;;;;4.50;1.42;;;;;;;17.62;38.73;101155.06;5035187;28;20033;-50
2022/05/02 03:49:41;;;;;;;5.97;1.70;;;;;;;17.62;39.31;101160.50;5035705;28;20401;-49
2022/05/02 03:52:08;;;;;;;7.43;2.05;;;;;;;17.74;39.07;101173.97;5035158;28;20025;-51
2022/05/02 03:54:34;;;;;;;5.60;1.60;;;;;;;17.36;40.17;101170.84;5035169;28;20034;-50
2022/05/02 03:57:01;;;;;;;2.80;1.20;;;;;;;16.97;40.55;101172.53;5035381;28;20524;-50
2022/05/02 03:59:27;;;;;;;10.18;2.15;;;;;;;17.03;40.55;101178.88;5035266;28;20037;-50
2022/05/02 04:01:53;;;;;;;6.47;2.50;;;;;;;16.93;40.72;101178.66;5035095;28;20080;-50
2022/05/02 04:04:19;;;;;;;3.80;1.55;;;;;;;16.89;41.04;101181.88;5035282;28;20034;-50
2022/05/02 04:06:47;;;;;;;6.90;2.00;;;;;;;16.59;41.36;101179.31;5035274;28;20108;-50
2022/05/02 04:09:13;;;;;;;5.43;2.78;;;;;;;16.72;41.31;101182.84;5035216;28;20068;-50
2022/05/02 04:11:39;;;;;;;7.60;2.10;;;;;;;16.70;40.81;101183.03;5034840;28;20101;-51
2022/05/02 04:14:06;;;;;;;6.47;1.88;;;;;;;16.67;41.39;101186.25;5034961;28;20033;-50
2022/05/02 04:16:32;;;;;;;4.68;1.60;;;;;;;16.75;40.31;101191.28;5034702;28;20030;-51
2022/05/02 04:18:58;;;;;;;4.57;2.22;;;;;;;16.77;40.53;101188.38;5035016;28;20067;-50
2022/05/02 04:21:24;;;;;;;7.05;2.28;;;;;;;16.49;40.76;101198.03;5034722;28;20022;-50
2022/05/02 04:23:51;;;;;;;5.57;1.67;;;;;;;16.28;41.21;101199.44;5034443;28;20026;-50
2022/05/02 04:26:17;;;;;;;3.53;1.48;;;;;;;16.30;41.08;101207.28;5034569;28;20025;-49
2022/05/02 04:28:43;;;;;;;11.10;2.10;;;;;;;16.28;40.89;101215.63;5034487;28;20036;-50
2022/05/02 04:31:09;;;;;;;5.32;1.70;;;;;;;16.19;41.07;101208.09;5034424;28;20099;-50
2022/05/02 04:33:35;;;;;;;7.13;2.00;;;;;;;16.00;41.46;101213.63;5034507;28;20407;-50
2022/05/02 04:36:02;;;;;;;4.25;1.40;;;;;;;16.12;41.21;101215.50;5034475;28;20512;-50
2022/05/02 04:38:30;;;;;;;3.45;1.33;;;;;;;16.00;41.39;101224.41;5034370;28;20037;-50
2022/05/02 04:40:57;;;;;;;3.97;1.55;;;;;;;15.95;41.72;101221.59;5034537;28;20101;-51
2022/05/02 04:43:24;;;;;;;4.53;1.20;;;;;;;15.93;41.86;101228.25;5035359;28;20411;-48
2022/05/02 04:45:51;;;;;;;4.38;1.40;;;;;;;16.04;41.92;101228.28;5034906;28;20037;-51
2022/05/02 04:48:17;;;;;;;9.13;2.03;;;;;;;15.86;42.39;101231.06;5034170;28;20033;-49
2022/05/02 04:50:45;;;;;;;7.18;1.92;;;;;;;15.78;42.45;101223.31;5033998;28;20030;-50
2022/05/02 04:53:11;;;;;;;7.03;2.10;;;;;;;15.83;42.45;101226.97;5034292;28;20097;-50
2022/05/02 04:55:38;;;;;;;7.22;1.65;;;;;;;15.77;42.87;101229.78;5033950;28;20393;-50
2022/05/02 04:58:04;;;;;;;3.78;1.40;;;;;;;15.76;42.67;101233.50;5034308;28;20053;-50
2022/05/02 05:00:30;;;;;;;5.20;2.05;;;;;;;15.77;42.91;101233.28;5033955;28;20022;-48
2022/05/02 05:02:56;;;;;;;5.20;1.40;;;;;;;15.74;42.92;101222.94;5034518;28;20088;-50
2022/05/02 05:05:23;;;;;;;3.40;1.33;;;;;;;15.74;42.57;101231.03;5033994;28;20028;-48
2022/05/02 05:07:49;;;;;;;6.45;1.60;;;;;;;15.80;42.29;101230.13;5034277;28;20072;-50
2022/05/02 05:10:16;;;;;;;9.27;1.80;;;;;;;15.70;42.49;101226.34;5033663;28;20104;-50
2022/05/02 05:13:07;;;;;;;3.97;1.40;;;;;;;15.80;42.39;101230.13;5033699;28;20091;-51
2022/05/02 05:19:23;;;;;;;4.25;1.60;;;;;;;15.72;43.52;101224.25;5024574;28;20033;-47
2022/05/02 05:21:58;;;;;;;6.72;1.75;;;;;;;15.56;45.60;101233.78;5033580;28;20483;-50
2022/05/02 05:24:33;;;;;;;7.68;1.70;;;;;;;15.57;46.89;101236.25;5033564;28;20033;-50
2022/05/02 05:27:28;;;;;;;7.72;2.28;;;;;;;15.64;49.06;101230.78;5033722;28;20064;-51
2022/05/02 05:30:12;;;;;;;10.93;2.88;;;;;;;15.51;50.78;101229.06;5024570;28;20053;-50
2022/05/02 05:32:51;;;;;;;14.20;3.17;;;;;;;15.44;51.33;101236.44;5033403;28;20104;-47
2022/05/02 05:35:45;;;;;;;7.75;2.63;;;;;;;15.49;51.83;101233.88;5033228;28;20111;-51
2022/05/02 05:38:21;;;;;;;11.40;3.13;;;;;;;15.47;52.26;101233.25;5033535;28;20033;-50
2022/05/02 05:40:54;;;;;;;9.57;3.00;;;;;;;15.23;52.92;101228.84;5032957;28;20025;-47
2022/05/02 05:44:01;;;;;;;17.48;3.30;;;;;;;15.23;54.06;101221.56;5033563;28;20037;-48
2022/05/02 05:47:17;;;;;;;11.43;3.70;;;;;;;15.16;54.82;101220.00;4996410;28;20098;-49
2022/05/02 05:50:01;;;;;;;13.52;2.92;;;;;;;15.18;54.96;101226.00;5033447;28;20059;-50
2022/05/02 05:52:49;;;;;;;16.85;3.63;;;;;;;14.93;55.92;101215.28;5033222;28;20083;-51
2022/05/02 05:55:23;;;;;;;14.15;3.55;;;;;;;14.84;55.84;101213.97;5033021;28;20017;-47
2022/05/02 05:58:06;;;;;;;17.15;3.75;;;;;;;14.75;55.90;101211.56;5033357;28;20036;-47
2022/05/02 06:00:42;;;;;;;16.27;4.30;;;;;;;14.61;56.90;101217.34;5033201;28;20021;-48
2022/05/02 06:03:24;;;;;;;13.75;3.60;;;;;;;14.46;56.96;101218.47;5032864;28;20501;-50
2022/05/02 06:05:50;;;;;;;10.65;3.83;;;;;;;14.23;58.99;101229.88;5032949;28;20037;-50
2022/05/02 06:08:20;;;;;;;11.48;3.25;;;;;;;14.20;58.58;101218.72;5033214;28;20386;-50
2022/05/02 06:10:48;;;;;;;12.18;3.67;;;;;;;14.10;59.08;101215.69;5032884;28;20029;-47
2022/05/02 06:13:19;;;;;;;13.18;3.65;;;;;;;14.04;59.93;101208.50;5032841;28;20036;-50
2022/05/02 06:18:37;;;;;;;14.82;3.78;;;;;;;13.63;61.27;101215.22;5033291;28;20037;-47
2022/05/02 06:21:05;;;;;;;14.73;3.33;;;;;;;13.70;61.52;101218.69;5032836;28;20032;-48
2022/05/02 06:23:57;;;;;;;16.05;4.63;;;;;;;13.60;61.69;101227.25;5032748;28;20025;-47
2022/05/02 06:26:25;;;;;;;13.95;4.00;;;;;;;13.80;61.20;101213.66;5029015;28;20041;-48
2022/05/02 06:28:54;;;;;;;13.40;3.88;;;;;;;13.51;62.10;101214.28;5032778;28;20360;-47
2022/05/02 06:31:26;;;;;;;16.77;3.35;;;;;;;13.55;62.13;101218.16;5032434;28;20045;-49
2022/05/02 06:33:53;;;;;;;19.05;4.07;;;;;;;13.44;62.28;101214.31;5032813;28;20025;-49
2022/05/02 06:36:42;;;;;;;18.95;4.07;;;;;;;13.44;62.34;101217.00;5032651;28;20029;-47
2022/05/02 06:39:35;;;;;;;16.35;3.40;;;;;;;13.23;63.05;101217.31;5032650;28;20458;-50
2022/05/02 06:42:31;;;;;;;22.40;3.90;;;;;;;13.28;62.83;101226.38;5032666;28;20064;-49
2022/05/02 06:45:06;;;;;;;21.88;3.92;;;;;;;13.37;62.35;101229.63;5033015;28;20037;-50
2022/05/02 06:48:01;;;;;;;10.77;3.42;;;;;;;13.42;62.54;101237.88;5032700;28;20053;-50
2022/05/02 06:50:31;;;;;;;13.38;2.85;;;;;;;13.07;63.53;101246.28;5032417;28;20421;-49
2022/05/02 06:53:28;;;;;;;11.43;3.20;;;;;;;13.22;62.69;101253.31;5034776;28;20508;-49
2022/05/02 06:55:53;;;;;;;;;;;;;;;13.23;63.22;101266.53;5036900;28;20030;-49
2022/05/02 06:58:44;;;;;;;18.67;3.70;;;;;;;13.23;63.36;101254.94;5036371;28;19920;-50
2022/05/02 07:01:41;;;;;;;10.02;3.15;;;;;;;13.29;62.97;101262.97;5036504;28;20048;-51
2022/05/02 07:04:13;;;;;;;13.27;3.42;;;;;;;13.31;62.43;101268.13;5036249;28;20040;-50
2022/05/02 07:06:58;;;;;;;12.23;3.40;;;;;;;13.23;62.31;101261.16;5036341;28;20026;-47
2022/05/02 07:09:31;;;;;;;13.00;3.80;;;;;;;13.15;62.96;101262.16;5036417;28;20029;-50
2022/05/02 07:12:02;;;;;;;11.00;3.53;;;;;;;13.23;63.03;101255.78;5036241;28;20065;-49
2022/05/02 07:15:10;;;;;;;14.90;3.65;;;;;;;13.19;62.94;101238.38;5036043;28;20496;-51
2022/05/02 07:17:42;;;;;;;10.85;3.22;;;;;;;13.09;63.24;101254.94;5025644;28;20052;-47
2022/05/02 07:20:19;;;;;;;15.27;3.25;;;;;;;13.01;63.28;101262.44;5036239;28;20083;-50
2022/05/02 07:23:24;;;;;;;11.32;3.10;;;;;;;13.00;63.21;101269.69;5036706;28;20413;-47
2022/05/02 07:26:01;;;;;;;17.88;4.03;;;;;;;13.13;62.81;101272.31;5034429;28;20057;-50
2022/05/02 07:28:50;;;;;;;12.02;3.30;;;;;;;13.10;62.41;101269.22;5035854;28;20366;-50
2022/05/02 07:31:21;;;;;;;7.60;2.42;;;;;;;13.10;61.72;101269.22;5035675;28;20045;-48
2022/05/02 07:33:53;;;;;;;11.57;2.65;;;;;;;13.13;61.58;101271.50;5035883;28;20034;-48
2022/05/02 07:36:22;;;;;;;17.10;3.60;;;;;;;13.01;61.93;101289.31;5035730;28;20183;-49
2022/05/02 07:39:04;;;;;;;10.10;2.50;;;;;;;13.11;61.30;101289.69;5035560;28;20025;-48
2022/05/02 07:41:31;;;;;;;11.07;3.38;;;;;;;13.05;61.39;101296.75;5035710;28;20021;-47
2022/05/02 07:44:00;;;;;;;9.68;3.40;;;;;;;12.98;63.02;101297.78;5035627;28;20107;-49
2022/05/02 07:46:37;;;;;;;12.70;3.13;;;;;;;12.98;63.65;101305.84;5035366;28;20116;-47
2022/05/02 07:49:06;;;;;;;11.77;3.53;;;;;;;12.98;63.53;101316.59;5035487;28;20034;-48
2022/05/02 07:51:38;;;;;;;10.27;3.08;;;;;;;12.90;62.01;101313.09;5035312;28;20541;-47
2022/05/02 07:54:07;;;;;;;10.30;3.25;;;;;;;12.81;63.84;101317.03;5035447;28;20033;-47
2022/05/02 07:56:35;;;;;;;14.50;3.72;;;;;;;12.87;63.67;101315.38;5035245;28;20332;-50
2022/05/02 07:59:07;;;;;;;12.52;3.53;;;;;;;12.82;63.98;101323.22;5035266;28;20022;-50
2022/05/02 08:01:33;;;;;;;15.55;4.07;;;;;;;12.86;64.39;101314.53;5035056;28;20053;-47
2022/05/02 08:03:59;;;;;;;14.52;3.17;;;;;;;12.82;63.43;101313.31;5034783;28;20064;-47
2022/05/02 08:06:44;;;;;;;19.55;4.22;;;;;;;12.78;63.89;101313.97;5034995;28;20025;-49
2022/05/02 08:09:25;;;;;;;13.60;3.33;;;;;;;12.74;63.32;101313.53;5034931;28;20478;-47
2022/05/02 08:12:13;;;;;;;13.15;2.83;;;;;;;12.68;63.27;101311.69;5034729;28;20033;-47
2022/05/02 08:15:11;;;;;;;14.02;3.22;;;;;;;12.66;63.74;101313.75;5034995;28;20029;-47
2022/05/02 08:18:14;;;;;;;12.68;3.67;;;;;;;12.59;63.62;101315.59;5034768;28;20041;-49
2022/05/02 08:21:03;;;;;;;14.43;3.50;;;;;;;12.47;64.54;101325.31;5004939;28;20034;-47
2022/05/02 08:27:15;;;;;;;6.30;2.45;;;;;;;12.27;61.93;101330.66;5035567;28;20390;-47
2022/05/02 08:30:05;;;;;;;6.25;2.63;;;;;;;12.39;60.36;101319.13;5034565;28;20385;-50
2022/05/02 08:33:08;;;;;;;8.02;1.73;;;;;;;12.28;60.76;101314.38;5034881;28;20025;-47
2022/05/02 08:36:08;;;;;;;6.90;1.77;;;;;;;12.41;60.09;101313.56;5034346;28;20025;-50
2022/05/02 08:38:53;;;;;;;5.00;1.73;;;;;;;12.24;60.71;101309.63;4965074;28;20039;-49
2022/05/02 08:41:33;;;;;;;9.50;2.17;;;;;;;12.49;59.89;101315.19;5034423;28;20057;-50
2022/05/02 08:44:33;;;;;;;7.82;1.98;;;;;;;12.41;59.93;101305.50;5034145;28;20030;-48
2022/05/02 08:47:37;;;;;;;8.27;1.83;;;;;;;12.39;59.84;101315.63;5034351;28;20037;-47
2022/05/02 08:50:23;;;;;;;11.50;2.22;;;;;;;12.51;59.03;101307.78;4993820;28;20393;-50
2022/05/02 08:53:18;;;;;;;12.82;2.00;;;;;;;12.33;58.89;101311.91;5034126;28;20163;-49
2022/05/02 08:56:06;;;;;;;6.07;3.47;;;;;;;12.21;59.70;101321.59;4963719;28;20046;-50
2022/05/02 08:58:42;;;;;;;8.88;2.10;;;;;;;12.34;58.77;101315.41;5033850;28;20049;-49
2022/05/02 09:02:05;;;;;;;7.63;1.77;;;;;;;11.98;60.40;101321.13;5034172;28;20025;-51
2022/05/02 09:05:00;;;;;;;4.70;2.00;;;;;;;11.96;60.58;101328.56;5020611;28;20044;-51
2022/05/02 09:08:06;;;;;;;7.15;1.60;;;;;;;11.78;61.29;101324.59;5005143;28;20041;-51
2022/05/02 09:11:09;;;;;;;5.63;2.00;;;;;;;11.85;61.21;101322.78;5033964;28;20049;-48
2022/05/02 09:14:16;;;;;;;7.25;1.88;;;;;;;11.72;60.85;101330.75;5033567;28;20517;-47
2022/05/02 09:17:30;;;;;;;4.38;1.27;;;;;;;11.72;60.70;101328.06;5015268;28;20045;-47
2022/05/02 09:20:29;;;;;;;7.60;1.88;;;;;;;11.65;60.51;101316.47;5016500;28;20474;-47
2022/05/02 09:23:15;;;;;;;7.00;1.63;;;;;;;11.69;60.02;101328.47;5034167;28;20111;-50
2022/05/02 09:25:59;;;;;;;5.57;1.30;;;;;;;11.68;60.37;101340.22;5033537;28;20069;-50
2022/05/02 09:29:02;;;;;;;6.22;1.55;;;;;;;11.86;59.24;101340.50;5033855;28;20033;-47
2022/05/02 09:31:57;;;;;;;4.20;1.40;;;;;;;11.93;59.54;101339.69;5033028;28;20041;-49
2022/05/02 09:34:46;;;;;;;2.83;1.20;;;;;;;11.94;59.65;101341.34;5033822;28;20034;-49
2022/05/02 09:37:30;;;;;;;2.65;1.40;;;;;;;11.96;59.49;101342.00;5033352;28;20112;-49
2022/05/02 09:40:17;;;;;;;8.30;1.63;;;;;;;12.04;58.92;101347.97;5033661;28;20071;-47
2022/05/02 09:43:20;;;;;;;6.70;1.77;;;;;;;12.13;58.93;101351.31;5033466;28;20031;-47
2022/05/02 09:52:01;;;;;;;3.63;1.58;;;;;;;12.00;58.28;101346.75;5032807;28;20026;-49
2022/05/02 09:57:58;;;;;;;3.88;1.50;;;;;;;11.76;59.06;101345.41;5033195;28;20624;-50
2022/05/02 10:03:36;;;;;;;7.75;1.80;;;;;;;11.75;59.49;101353.66;5033213;28;20033;-47
2022/05/02 10:06:26;;;;;;;3.97;1.73;;;;;;;11.82;58.82;101349.97;5032869;28;20596;-47
2022/05/02 10:09:14;;;;;;;5.13;1.60;;;;;;;11.87;59.02;101344.84;5032996;28;20033;-47
2022/05/02 10:12:18;;;;;;;5.40;1.52;;;;;;;11.87;58.65;101344.84;5032623;28;20096;-48
2022/05/02 10:15:17;;;;;;;3.63;1.50;;;;;;;11.81;58.82;101342.13;5032708;28;20033;-48
2022/05/02 10:17:51;;;;;;;5.53;1.63;;;;;;;11.94;59.06;101342.19;4995225;28;20046;-47
2022/05/02 10:20:22;;;;;;;5.43;1.70;;;;;;;11.81;59.11;101323.34;5032742;28;20041;-46
2022/05/02 10:22:51;;;;;;;7.80;2.10;;;;;;;11.88;59.75;101325.06;5032576;28;20389;-47
2022/05/02 10:25:36;;;;;;;6.38;2.00;;;;;;;11.98;59.52;101324.66;5032601;28;20040;-49
2022/05/02 10:28:28;;;;;;;6.93;1.80;;;;;;;11.87;60.43;101315.34;5033443;28;20029;-48
2022/05/02 10:31:13;;;;;;;8.55;2.38;;;;;;;11.87;60.37;101314.50;5032248;28;20310;-48
2022/05/02 10:34:07;;;;;;;6.67;2.30;;;;;;;11.83;61.14;101324.84;5032574;28;20045;-48
2022/05/02 10:36:39;;;;;;;13.05;2.53;;;;;;;11.78;61.52;101342.53;5029580;28;20678;-49
2022/05/02 10:39:32;;;;;;;7.68;2.90;;;;;;;11.81;61.98;101353.69;5032503;28;20033;-46
2022/05/02 10:42:04;;;;;;;7.60;2.60;;;;;;;11.73;61.05;101339.63;5032334;28;20053;-47
2022/05/02 10:44:57;;;;;;;10.32;2.60;;;;;;;11.68;62.06;101348.28;5032587;28;20030;-48
2022/05/02 10:47:27;;;;;;;11.65;2.85;;;;;;;11.66;62.12;101338.75;5032405;28;20482;-47
2022/05/02 10:50:04;;;;;;;6.40;2.10;;;;;;;11.81;61.20;101342.97;5032631;28;20025;-48
2022/05/02 10:52:33;;;;;;;8.05;2.80;;;;;;;11.85;61.61;101360.31;5032364;28;20044;-47
2022/05/02 10:55:18;;;;;;;8.25;3.20;;;;;;;11.72;61.87;101354.06;5032240;28;20025;-48
2022/05/02 10:58:06;;;;;;;8.95;3.22;;;;;;;11.63;62.80;101364.94;5032217;28;20029;-47
2022/05/02 11:00:33;;;;;;;14.68;2.72;;;;;;;11.57;62.44;101355.03;5032564;28;20029;-47
2022/05/02 11:03:24;;;;;;;8.32;2.33;;;;;;;11.55;62.34;101367.00;5032298;28;20033;-47
2022/05/02 11:06:11;;;;;;;4.97;2.20;;;;;;;11.33;62.05;101369.78;5032396;28;20041;-47
2022/05/02 11:08:47;;;;;;;11.38;3.00;;;;;;;11.28;62.65;101361.50;5032613;28;20037;-49
2022/05/02 11:11:38;;;;;;;7.97;2.10;;;;;;;11.66;60.79;101365.56;5032421;28;20064;-49
2022/05/02 11:14:04;;;;;;;7.28;2.17;;;;;;;11.33;61.57;101372.44;5032503;28;20049;-47
2022/05/02 11:16:48;;;;;;;4.78;1.70;;;;;;;11.35;60.87;101369.56;5032105;28;20095;-47
2022/05/02 11:22:36;;;;;;;5.72;1.77;;;;;;;11.36;61.08;101377.41;5007218;28;20094;-47
2022/05/02 11:25:11;;;;;;;10.27;2.63;;;;;;;11.31;61.64;101369.13;5032220;28;20079;-46
2022/05/02 11:27:51;;;;;;;18.70;3.27;;;;;;;11.44;64.24;101368.38;5032316;28;20037;-47
2022/05/02 11:30:31;;;;;;;9.77;2.38;;;;;;;11.34;64.48;101368.75;5031661;28;20596;-48
2022/05/02 11:33:10;;;;;;;10.45;2.78;;;;;;;11.12;65.44;101375.22;5032208;28;20389;-49
2022/05/02 11:35:37;;;;;;;13.95;3.22;;;;;;;11.30;65.18;101372.84;5031631;28;20053;-49
2022/05/02 11:38:40;;;;;;;7.20;2.70;;;;;;;11.20;65.22;101369.69;5033050;28;20029;-47
2022/05/02 11:41:18;;;;;;;9.63;2.40;;;;;;;11.04;65.58;101383.38;5035448;28;20108;-51
2022/05/02 11:43:45;;;;;;;9.98;3.20;;;;;;;11.04;65.25;101383.38;5035508;28;20057;-49
2022/05/02 11:46:18;;;;;;;9.32;2.97;;;;;;;11.07;65.69;101393.72;5035233;28;20109;-50
2022/05/02 11:49:08;;;;;;;11.55;3.15;;;;;;;11.06;65.83;101392.06;5035699;28;20025;-50
2022/05/02 11:51:51;;;;;;;7.50;2.50;;;;;;;11.05;65.68;101391.25;5035467;28;20113;-50
2022/05/02 11:54:39;;;;;;;9.32;2.33;;;;;;;11.07;65.79;101388.38;5035790;28;20032;-50
2022/05/02 11:57:22;;;;;;;6.80;2.70;;;;;;;11.14;65.49;101383.88;5035265;28;20030;-50
2022/05/02 12:00:06;;;;;;;10.07;2.78;;;;;;;11.26;66.00;101387.66;5035193;28;20034;-49
2022/05/02 12:02:41;;;;;;;7.57;2.42;;;;;;;11.24;65.98;101378.97;5035198;28;20029;-48
2022/05/02 12:05:27;;;;;;;9.02;2.78;;;;;;;11.19;66.58;101384.09;5035189;28;20109;-48
2022/05/02 12:07:56;;;;;;;6.07;2.08;;;;;;;11.03;64.58;101385.22;5035506;28;20052;-47
2022/05/02 12:10:35;;;;;;;7.72;1.90;;;;;;;11.08;63.38;101385.47;5034756;28;20073;-49
2022/05/02 12:13:03;;;;;;;6.75;1.42;;;;;;;10.90;63.02;101387.81;5035070;28;20025;-48
2022/05/02 12:15:30;;;;;;;5.75;1.70;;;;;;;10.90;62.98;101381.66;5034881;28;20408;-48
2022/05/02 12:18:04;;;;;;;4.22;1.42;;;;;;;10.91;62.46;101388.66;5035012;28;20029;-47
2022/05/02 12:20:33;;;;;;;4.22;1.40;;;;;;;10.82;62.39;101396.81;5034884;28;20454;-47
2022/05/02 12:23:12;;;;;;;5.90;1.25;;;;;;;10.95;61.29;101400.63;5034662;28;20026;-50
2022/05/02 12:25:54;;;;;;;4.70;1.20;;;;;;;10.97;61.54;101407.44;5035435;28;20033;-50
2022/05/02 12:28:43;;;;;;;3.20;1.10;;;;;;;10.99;61.31;101401.88;5034680;28;20112;-47
2022/05/02 12:31:17;;;;;;;3.42;1.10;;;;;;;11.02;61.42;101396.16;5034361;28;20049;-48
2022/05/02 12:33:48;;;;;;;2.92;1.30;;;;;;;11.00;61.42;101391.00;5034658;28;20028;-50